createdAt,value
2022-11-29T00:01:33.965Z,23.87
2022-11-29T00:04:01.793Z,22.63
2022-11-29T00:06:31.494Z,23.53
2022-11-29T00:09:01.596Z,23.03
2022-11-29T00:11:53.201Z,24.37
2022-11-29T00:14:20.985Z,22.70
2022-11-29T00:16:56.524Z,22.93
2022-11-29T00:19:23.553Z,23.83
2022-11-29T00:21:50.511Z,23.03
2022-11-29T00:24:17.650Z,23.23
2022-11-29T00:26:44.777Z,22.67
2022-11-29T00:29:13.077Z,23.23
2022-11-29T00:31:40.425Z,23.63
2022-11-29T00:34:07.699Z,23.33
2022-11-29T00:36:35.080Z,22.50
2022-11-29T00:39:03.675Z,23.63
2022-11-29T00:41:31.220Z,22.53
2022-11-29T00:43:58.279Z,23.33
2022-11-29T00:46:25.443Z,22.73
2022-11-29T00:48:52.347Z,22.77
2022-11-29T00:51:19.287Z,23.23
2022-11-29T00:53:46.105Z,23.47
2022-11-29T00:56:12.965Z,22.40
2022-11-29T00:58:39.804Z,23.73
2022-11-29T01:01:06.868Z,22.97
2022-11-29T01:03:34.114Z,25.03
2022-11-29T01:06:12.503Z,23.10
2022-11-29T01:08:39.796Z,23.80
2022-11-29T01:11:08.659Z,22.90
2022-11-29T01:13:36.017Z,23.40
2022-11-29T01:16:04.379Z,23.90
2022-11-29T01:18:31.675Z,22.60
2022-11-29T01:21:04.888Z,23.83
2022-11-29T01:23:32.138Z,23.40
2022-11-29T01:26:04.524Z,24.27
2022-11-29T01:28:31.948Z,23.50
2022-11-29T01:30:59.167Z,23.23
2022-11-29T01:33:26.029Z,23.87
2022-11-29T01:35:54.486Z,23.83
2022-11-29T01:38:22.310Z,24.10
2022-11-29T01:41:07.648Z,22.77
2022-11-29T01:43:52.672Z,22.97
2022-11-29T01:46:19.535Z,22.83
2022-11-29T01:48:46.450Z,24.53
2022-11-29T01:51:13.317Z,24.47
2022-11-29T01:53:40.210Z,24.70
2022-11-29T01:56:08.107Z,23.60
2022-11-29T01:58:36.065Z,23.37
2022-11-29T02:01:03.537Z,23.63
2022-11-29T02:03:30.419Z,23.20
2022-11-29T02:05:57.249Z,23.17
2022-11-29T02:08:29.719Z,22.67
2022-11-29T02:11:12.796Z,24.57
2022-11-29T02:13:57.620Z,23.53
2022-11-29T02:16:46.168Z,23.53
2022-11-29T02:19:27.380Z,22.43
2022-11-29T02:22:14.019Z,24.03
2022-11-29T02:24:44.177Z,22.53
2022-11-29T02:27:38.964Z,24.37
2022-11-29T02:30:17.873Z,23.27
2022-11-29T02:33:04.339Z,23.63
2022-11-29T02:35:43.206Z,23.73
2022-11-29T02:38:20.999Z,23.20
2022-11-29T02:41:17.921Z,22.90
2022-11-29T02:44:22.760Z,23.70
2022-11-29T02:47:13.208Z,22.97
2022-11-29T02:49:52.195Z,22.70
2022-11-29T02:52:50.656Z,23.83
2022-11-29T02:55:29.623Z,22.87
2022-11-29T02:58:08.564Z,22.77
2022-11-29T03:00:43.742Z,24.30
2022-11-29T03:03:14.631Z,23.43
2022-11-29T03:06:18.142Z,23.83
2022-11-29T03:09:07.053Z,24.00
2022-11-29T03:11:33.872Z,24.37
2022-11-29T03:14:06.798Z,23.57
2022-11-29T03:16:59.097Z,24.03
2022-11-29T03:19:44.526Z,23.00
2022-11-29T03:22:29.831Z,24.63
2022-11-29T03:25:08.678Z,24.27
2022-11-29T03:27:50.376Z,23.60
2022-11-29T03:30:18.615Z,23.67
2022-11-29T03:32:51.101Z,27.13
2022-11-29T03:35:25.511Z,23.43
2022-11-29T03:38:13.846Z,24.90
2022-11-29T03:41:05.971Z,24.13
2022-11-29T03:43:57.297Z,24.50
2022-11-29T03:46:46.362Z,24.77
2022-11-29T03:49:29.308Z,24.27
2022-11-29T03:52:26.576Z,26.30
2022-11-29T03:55:02.328Z,25.10
2022-11-29T03:57:45.113Z,25.10
2022-11-29T04:00:13.826Z,25.20
2022-11-29T04:03:00.874Z,24.63
2022-11-29T04:05:52.441Z,24.97
2022-11-29T04:08:53.329Z,23.80
2022-11-29T04:12:05.411Z,24.40
2022-11-29T04:14:43.995Z,24.67
2022-11-29T04:17:47.391Z,25.70
2022-11-29T04:20:17.231Z,26.17
2022-11-29T04:23:17.902Z,24.87
2022-11-29T04:26:03.512Z,25.37
2022-11-29T04:29:15.275Z,24.23
2022-11-29T04:32:07.215Z,24.27
2022-11-29T04:34:56.542Z,25.40
2022-11-29T04:38:01.042Z,24.77
2022-11-29T04:40:55.234Z,24.57
2022-11-29T04:43:43.356Z,26.33
2022-11-29T04:46:41.676Z,25.73
2022-11-29T04:49:42.128Z,25.97
2022-11-29T04:52:45.630Z,24.73
2022-11-29T04:55:33.940Z,23.97
2022-11-29T04:58:21.553Z,24.87
2022-11-29T05:01:15.037Z,24.93
2022-11-29T05:03:58.975Z,24.60
2022-11-29T05:06:34.931Z,25.20
2022-11-29T05:09:07.480Z,25.40
2022-11-29T05:11:37.297Z,24.37
2022-11-29T05:14:34.834Z,26.20
2022-11-29T05:17:19.232Z,25.50
2022-11-29T05:20:15.354Z,24.83
2022-11-29T05:23:12.208Z,26.53
2022-11-29T05:25:48.075Z,25.90
2022-11-29T05:29:02.313Z,27.00
2022-11-29T05:31:41.301Z,25.50
2022-11-29T05:34:41.502Z,25.30
2022-11-29T05:37:45.456Z,26.40
2022-11-29T05:40:40.835Z,24.77
2022-11-29T05:43:32.419Z,25.37
2022-11-29T05:46:05.234Z,25.03
2022-11-29T05:49:00.529Z,25.77
2022-11-29T05:51:35.923Z,24.97
2022-11-29T05:54:23.583Z,25.67
2022-11-29T05:57:22.238Z,24.97
2022-11-29T05:59:51.059Z,24.67
2022-11-29T06:02:39.528Z,25.13
2022-11-29T06:05:17.162Z,25.00
2022-11-29T06:08:08.324Z,25.00
2022-11-29T06:10:40.014Z,24.03
2022-11-29T06:13:28.640Z,24.50
2022-11-29T06:16:17.293Z,24.60
2022-11-29T06:19:00.806Z,25.77
2022-11-29T06:21:46.287Z,25.80
2022-11-29T06:24:28.242Z,25.83
2022-11-29T06:27:21.810Z,26.47
2022-11-29T06:30:04.737Z,24.37
2022-11-29T06:32:43.182Z,24.37
2022-11-29T06:35:34.945Z,25.43
2022-11-29T06:38:18.564Z,26.13
2022-11-29T06:40:45.870Z,25.57
2022-11-29T06:43:13.072Z,25.53
2022-11-29T06:45:44.089Z,25.17
2022-11-29T06:48:16.769Z,26.70
2022-11-29T06:51:05.345Z,25.27
2022-11-29T06:53:51.163Z,24.90
2022-11-29T06:56:34.431Z,25.23
2022-11-29T06:59:07.427Z,24.90
2022-11-29T07:01:52.044Z,25.70
2022-11-29T07:04:53.091Z,25.57
2022-11-29T07:07:22.217Z,25.40
2022-11-29T07:09:53.128Z,25.27
2022-11-29T07:12:20.312Z,25.23
2022-11-29T07:14:47.548Z,25.73
2022-11-29T07:17:27.764Z,26.57
2022-11-29T07:20:00.382Z,26.17
2022-11-29T07:22:45.434Z,25.93
2022-11-29T07:25:47.252Z,25.67
2022-11-29T07:28:20.300Z,26.37
2022-11-29T07:30:54.072Z,26.60
2022-11-29T07:33:29.599Z,24.50
2022-11-29T07:36:34.153Z,26.53
2022-11-29T07:39:32.822Z,25.83
2022-11-29T07:42:10.576Z,26.50
2022-11-29T07:45:12.644Z,24.97
2022-11-29T07:47:39.526Z,26.20
2022-11-29T07:50:06.913Z,25.20
2022-11-29T07:52:34.042Z,26.00
2022-11-29T07:55:01.861Z,25.17
2022-11-29T07:57:28.832Z,25.03
2022-11-29T07:59:55.579Z,25.37
2022-11-29T08:02:31.932Z,24.93
2022-11-29T08:04:59.054Z,26.87
2022-11-29T08:07:25.882Z,25.03
2022-11-29T08:09:52.859Z,24.30
2022-11-29T08:12:19.765Z,25.20
2022-11-29T08:14:46.791Z,23.67
2022-11-29T08:17:13.786Z,24.43
2022-11-29T08:19:40.619Z,24.67
2022-11-29T08:22:07.429Z,24.63
2022-11-29T08:24:34.270Z,24.70
2022-11-29T08:27:01.285Z,23.87
2022-11-29T08:29:28.076Z,24.60
2022-11-29T08:31:55.066Z,23.23
2022-11-29T08:34:23.598Z,23.27
2022-11-29T08:36:51.003Z,24.00
2022-11-29T08:39:17.890Z,24.10
2022-11-29T08:41:44.663Z,24.40
2022-11-29T08:44:11.668Z,24.57
2022-11-29T08:46:58.701Z,22.73
2022-11-29T08:49:25.722Z,24.50
2022-11-29T08:52:15.672Z,23.97
2022-11-29T08:54:42.887Z,24.83
2022-11-29T08:57:38.733Z,24.43
2022-11-29T08:59:57.713Z,23.93
2022-11-29T09:02:24.574Z,23.27
2022-11-29T09:04:51.400Z,23.37
2022-11-29T09:07:18.238Z,23.80
2022-11-29T09:09:45.051Z,24.73
2022-11-29T09:12:11.844Z,24.33
2022-11-29T09:14:38.674Z,23.47
2022-11-29T09:17:05.433Z,25.07
2022-11-29T09:19:32.597Z,24.03
2022-11-29T09:21:59.388Z,23.37
2022-11-29T09:24:26.237Z,23.63
2022-11-29T09:26:53.024Z,24.30
2022-11-29T09:29:20.028Z,22.87
2022-11-29T09:31:46.904Z,23.13
2022-11-29T09:34:18.745Z,24.13
2022-11-29T09:36:45.620Z,24.07
2022-11-29T09:39:12.469Z,21.33
2022-11-29T09:41:48.837Z,23.67
2022-11-29T09:44:18.687Z,23.77
2022-11-29T09:47:13.388Z,23.87
2022-11-29T09:49:52.386Z,23.53
2022-11-29T09:52:25.198Z,22.60
2022-11-29T09:55:16.076Z,22.77
2022-11-29T09:57:44.337Z,22.63
2022-11-29T10:00:20.591Z,23.77
2022-11-29T10:02:53.142Z,23.63
2022-11-29T10:05:31.446Z,23.70
2022-11-29T10:08:12.439Z,22.50
2022-11-29T10:10:48.571Z,23.47
2022-11-29T10:13:25.923Z,22.53
2022-11-29T10:16:12.311Z,22.80
2022-11-29T10:18:48.295Z,21.90
2022-11-29T10:21:20.977Z,22.13
2022-11-29T10:23:53.120Z,24.23
2022-11-29T10:26:20.819Z,23.40
2022-11-29T10:28:49.309Z,23.50
2022-11-29T10:31:35.060Z,23.17
2022-11-29T10:34:11.892Z,22.33
2022-11-29T10:36:49.834Z,21.03
2022-11-29T10:39:31.336Z,24.10
2022-11-29T10:42:01.810Z,22.47
2022-11-29T10:44:31.337Z,22.40
2022-11-29T10:47:05.508Z,22.73
2022-11-29T10:49:37.783Z,23.27
2022-11-29T10:52:05.358Z,22.33
2022-11-29T10:54:38.669Z,23.47
2022-11-29T10:57:16.986Z,22.53
2022-11-29T10:59:58.659Z,22.30
2022-11-29T11:02:25.802Z,23.20
2022-11-29T11:04:52.716Z,22.90
2022-11-29T11:07:31.037Z,22.80
2022-11-29T11:09:59.541Z,21.90
2022-11-29T11:12:31.849Z,21.97
2022-11-29T11:15:27.961Z,22.27
2022-11-29T11:18:00.325Z,22.53
2022-11-29T11:20:30.603Z,22.30
2022-11-29T11:23:00.965Z,22.20
2022-11-29T11:25:39.562Z,22.97
2022-11-29T11:28:29.535Z,21.83
2022-11-29T11:31:02.975Z,21.33
2022-11-29T11:33:34.045Z,21.93
2022-11-29T11:36:06.344Z,20.93
2022-11-29T11:38:41.666Z,22.93
2022-11-29T11:41:23.310Z,22.17
2022-11-29T11:43:53.406Z,21.73
2022-11-29T11:46:20.678Z,21.83
2022-11-29T11:48:48.431Z,21.93
2022-11-29T11:51:22.266Z,21.63
2022-11-29T11:53:54.928Z,22.13
2022-11-29T11:56:22.653Z,22.70
2022-11-29T11:58:57.955Z,20.70
2022-11-29T12:01:27.202Z,22.27
2022-11-29T12:04:03.566Z,21.80
2022-11-29T12:06:52.265Z,21.00
2022-11-29T12:09:46.158Z,21.00
2022-11-29T12:12:31.820Z,22.10
2022-11-29T12:15:17.239Z,21.20
2022-11-29T12:17:56.121Z,22.90
2022-11-29T12:20:49.248Z,21.97
2022-11-29T12:23:35.841Z,21.27
2022-11-29T12:26:56.327Z,22.27
2022-11-29T12:29:22.442Z,21.53
2022-11-29T12:32:04.286Z,21.83
2022-11-29T12:34:45.366Z,21.13
2022-11-29T12:37:25.816Z,22.47
2022-11-29T12:40:17.835Z,22.60
2022-11-29T12:43:10.499Z,21.83
2022-11-29T12:46:04.996Z,22.20
2022-11-29T12:49:02.491Z,22.13
2022-11-29T12:51:41.306Z,22.60
2022-11-29T12:54:29.308Z,22.43
2022-11-29T12:57:08.189Z,22.53
2022-11-29T12:59:58.945Z,22.80
2022-11-29T13:02:41.229Z,27.48
2022-11-29T13:05:31.046Z,22.53
2022-11-29T13:08:14.378Z,23.97
2022-11-29T13:11:07.287Z,23.23
2022-11-29T13:13:50.207Z,21.80
2022-11-29T13:19:42.157Z,22.33
2022-11-29T13:22:42.312Z,21.53
2022-11-29T13:25:17.546Z,23.20
2022-11-29T13:27:58.268Z,22.60
2022-11-29T13:30:26.175Z,22.23
2022-11-29T13:33:19.509Z,23.23
2022-11-29T13:36:29.246Z,23.00
2022-11-29T13:39:12.875Z,22.17
2022-11-29T13:42:17.458Z,22.87
2022-11-29T13:45:06.011Z,26.63
2022-11-29T13:47:32.811Z,24.17
2022-11-29T13:50:03.656Z,23.77
2022-11-29T13:52:36.755Z,22.87
2022-11-29T13:55:18.265Z,24.13
2022-11-29T13:58:16.725Z,23.43
2022-11-29T14:00:44.029Z,24.00
2022-11-29T14:03:29.001Z,22.73
2022-11-29T14:06:01.826Z,22.93
2022-11-29T14:09:02.368Z,23.53
2022-11-29T14:11:52.986Z,23.83
2022-11-29T14:14:25.966Z,22.70
2022-11-29T14:16:59.935Z,22.93
2022-11-29T14:19:36.434Z,23.67
2022-11-29T14:22:03.275Z,23.80
2022-11-29T14:24:35.883Z,24.30
2022-11-29T14:27:09.899Z,23.90
2022-11-29T14:29:53.650Z,23.97
2022-11-29T14:33:02.506Z,24.30
2022-11-29T14:35:48.552Z,23.30
2022-11-29T14:38:23.128Z,23.67
2022-11-29T14:41:01.822Z,23.30
2022-11-29T14:43:38.029Z,23.77
2022-11-29T14:46:17.144Z,23.30
2022-11-29T14:48:56.304Z,24.90
2022-11-29T14:51:25.497Z,24.30
2022-11-29T14:54:19.528Z,25.30
2022-11-29T14:56:47.407Z,23.83
2022-11-29T14:59:42.493Z,24.33
2022-11-29T15:02:34.148Z,25.50
2022-11-29T15:05:11.859Z,24.73
2022-11-29T15:07:44.107Z,24.57
2022-11-29T15:10:19.528Z,24.47
2022-11-29T15:12:47.315Z,25.43
2022-11-29T15:15:28.917Z,24.53
2022-11-29T15:18:26.533Z,24.80
2022-11-29T15:21:11.486Z,25.97
2022-11-29T15:23:43.033Z,25.67
2022-11-29T15:26:21.119Z,24.17
2022-11-29T15:28:47.979Z,25.20
2022-11-29T15:31:18.812Z,24.37
2022-11-29T15:33:48.622Z,24.60
2022-11-29T15:36:24.192Z,26.20
2022-11-29T15:38:54.273Z,25.33
2022-11-29T15:41:34.743Z,25.00
2022-11-29T15:44:07.369Z,25.30
2022-11-29T15:46:35.514Z,25.83
2022-11-29T15:49:25.649Z,25.43
2022-11-29T15:52:06.026Z,25.53
2022-11-29T15:54:42.257Z,26.10
2022-11-29T15:57:24.920Z,26.33
2022-11-29T15:59:58.158Z,25.87
2022-11-29T16:02:29.263Z,27.10
2022-11-29T16:05:11.416Z,26.63
2022-11-29T16:07:39.391Z,27.63
2022-11-29T16:10:22.909Z,27.70
2022-11-29T16:13:04.074Z,28.97
2022-11-29T16:15:43.734Z,27.83
2022-11-29T16:18:16.395Z,27.30
2022-11-29T16:20:45.411Z,27.33
2022-11-29T16:23:14.544Z,27.37
2022-11-29T16:26:09.991Z,26.73
2022-11-29T16:28:42.548Z,26.17
2022-11-29T16:31:12.423Z,27.80
2022-11-29T16:33:43.689Z,28.10
2022-11-29T16:36:28.818Z,28.50
2022-11-29T16:39:20.121Z,29.13
2022-11-29T16:42:25.912Z,28.90
2022-11-29T16:45:02.136Z,27.60
2022-11-29T16:47:31.399Z,29.23
2022-11-29T16:50:17.877Z,27.27
2022-11-29T16:52:45.125Z,27.93
2022-11-29T16:55:12.352Z,27.07
2022-11-29T16:57:39.863Z,28.83
2022-11-29T17:00:22.529Z,28.10
2022-11-29T17:02:49.557Z,28.43
2022-11-29T17:05:16.574Z,28.80
2022-11-29T17:07:43.884Z,28.17
2022-11-29T17:10:16.930Z,28.27
2022-11-29T17:12:47.956Z,28.50
2022-11-29T17:15:15.465Z,26.83
2022-11-29T17:17:43.474Z,27.80
2022-11-29T17:20:12.458Z,27.67
2022-11-29T17:22:39.632Z,28.83
2022-11-29T17:25:06.687Z,27.10
2022-11-29T17:27:33.519Z,28.47
2022-11-29T17:30:00.307Z,29.83
2022-11-29T17:32:27.275Z,27.70
2022-11-29T17:34:54.398Z,29.50
2022-11-29T17:37:21.141Z,28.33
2022-11-29T17:39:49.055Z,28.00
2022-11-29T17:42:16.049Z,28.27
2022-11-29T17:44:42.840Z,28.60
2022-11-29T17:47:09.617Z,29.37
2022-11-29T17:49:36.403Z,27.70
2022-11-29T17:52:03.309Z,29.23
2022-11-29T17:54:32.998Z,28.90
2022-11-29T17:57:00.934Z,28.17
2022-11-29T17:59:27.741Z,27.63
2022-11-29T18:01:54.601Z,29.60
2022-11-29T18:04:21.709Z,28.27
2022-11-29T18:06:51.348Z,28.10
2022-11-29T18:09:18.796Z,28.13
2022-11-29T18:11:49.032Z,28.50
2022-11-29T18:14:23.391Z,28.80
2022-11-29T18:16:51.169Z,27.43
2022-11-29T18:19:20.261Z,29.27
2022-11-29T18:21:47.858Z,26.40
2022-11-29T18:24:15.118Z,28.17
2022-11-29T18:26:42.682Z,27.57
2022-11-29T18:29:10.085Z,28.07
2022-11-29T18:31:39.905Z,26.67
2022-11-29T18:34:11.800Z,27.23
2022-11-29T18:36:44.367Z,28.90
2022-11-29T18:39:14.529Z,28.37
2022-11-29T18:41:44.463Z,27.70
2022-11-29T18:44:13.497Z,28.40
2022-11-29T18:46:43.147Z,27.37
2022-11-29T18:49:12.316Z,27.13
2022-11-29T18:51:39.677Z,28.30
2022-11-29T18:54:06.832Z,27.87
2022-11-29T18:56:35.528Z,26.60
2022-11-29T18:59:04.720Z,26.23
2022-11-29T19:01:34.634Z,28.73
2022-11-29T19:04:02.148Z,27.80
2022-11-29T19:06:38.643Z,27.20
2022-11-29T19:09:07.114Z,26.60
2022-11-29T19:11:34.902Z,27.70
2022-11-29T19:14:11.045Z,27.67
2022-11-29T19:16:39.459Z,27.87
2022-11-29T19:19:06.722Z,26.87
2022-11-29T19:21:34.642Z,27.03
2022-11-29T19:24:06.804Z,28.77
2022-11-29T19:26:34.967Z,26.77
2022-11-29T19:29:02.105Z,27.63
2022-11-29T19:31:29.661Z,27.77
2022-11-29T19:33:57.585Z,26.80
2022-11-29T19:36:32.064Z,26.43
2022-11-29T19:39:02.436Z,26.83
2022-11-29T19:41:34.267Z,28.67
2022-11-29T19:44:07.384Z,28.23
2022-11-29T19:46:48.840Z,27.80
2022-11-29T19:49:16.126Z,26.57
2022-11-29T19:51:43.410Z,28.53
2022-11-29T19:54:10.667Z,27.87
2022-11-29T19:56:38.942Z,27.97
2022-11-29T19:59:07.261Z,26.87
2022-11-29T20:01:40.678Z,28.27
2022-11-29T20:04:09.772Z,29.17
2022-11-29T20:06:36.965Z,27.77
2022-11-29T20:09:04.133Z,27.57
2022-11-29T20:11:30.983Z,28.23
2022-11-29T20:14:00.172Z,27.13
2022-11-29T20:16:28.583Z,26.93
2022-11-29T20:18:55.865Z,28.27
2022-11-29T20:21:32.815Z,27.37
2022-11-29T20:24:05.891Z,26.47
2022-11-29T20:26:36.351Z,29.00
2022-11-29T20:29:04.302Z,28.17
2022-11-29T20:31:32.702Z,28.27
2022-11-29T20:34:00.238Z,28.10
2022-11-29T20:36:39.216Z,27.40
2022-11-29T20:39:28.673Z,28.83
2022-11-29T20:42:25.676Z,28.83
2022-11-29T20:44:58.307Z,28.20
2022-11-29T20:47:53.075Z,28.60
2022-11-29T20:50:28.891Z,29.47
2022-11-29T20:53:14.529Z,29.10
2022-11-29T20:55:47.515Z,29.10
2022-11-29T20:58:15.145Z,29.53
2022-11-29T21:00:42.171Z,30.03
2022-11-29T21:03:12.178Z,28.83
2022-11-29T21:05:39.029Z,29.07
2022-11-29T21:08:05.850Z,29.33
2022-11-29T21:10:33.239Z,29.93
2022-11-29T21:13:00.404Z,29.17
2022-11-29T21:15:27.580Z,28.90
2022-11-29T21:17:54.755Z,29.07
2022-11-29T21:20:24.606Z,29.33
2022-11-29T21:23:22.737Z,29.23
2022-11-29T21:26:08.101Z,30.13
2022-11-29T21:28:41.607Z,29.50
2022-11-29T21:31:12.816Z,28.47
2022-11-29T21:33:40.014Z,28.80
2022-11-29T21:36:08.801Z,29.37
2022-11-29T21:38:35.699Z,29.73
2022-11-29T21:41:02.474Z,28.87
2022-11-29T21:43:58.067Z,28.67
2022-11-29T21:46:16.972Z,29.03
2022-11-29T21:48:44.407Z,30.57
2022-11-29T21:51:11.910Z,29.80
2022-11-29T21:53:39.903Z,29.43
2022-11-29T21:56:08.982Z,29.00
2022-11-29T21:58:37.251Z,30.97
2022-11-29T22:01:18.932Z,30.67
2022-11-29T22:03:46.144Z,30.97
2022-11-29T22:06:18.548Z,31.20
2022-11-29T22:08:45.519Z,29.53
2022-11-29T22:11:15.199Z,30.37
2022-11-29T22:14:02.257Z,30.47
2022-11-29T22:16:30.152Z,29.77
2022-11-29T22:18:57.039Z,29.93
2022-11-29T22:21:23.876Z,29.50
2022-11-29T22:23:52.752Z,30.63
2022-11-29T22:26:21.545Z,30.50
2022-11-29T22:28:48.444Z,30.10
2022-11-29T22:31:15.250Z,29.40
2022-11-29T22:33:42.082Z,30.40
2022-11-29T22:36:10.983Z,28.97
2022-11-29T22:38:38.895Z,31.40
2022-11-29T22:41:11.552Z,30.17
2022-11-29T22:43:39.893Z,32.13
2022-11-29T22:46:10.503Z,31.13
2022-11-29T22:48:39.183Z,29.43
2022-11-29T22:51:07.400Z,30.80
2022-11-29T22:53:35.403Z,30.23
2022-11-29T22:56:04.399Z,30.70
2022-11-29T22:58:31.817Z,30.97
2022-11-29T23:01:03.824Z,30.67
2022-11-29T23:03:37.102Z,31.83
2022-11-29T23:06:09.394Z,31.57
2022-11-29T23:08:36.747Z,30.17
2022-11-29T23:11:05.179Z,31.03
2022-11-29T23:13:34.230Z,30.50
2022-11-29T23:16:01.516Z,31.07
2022-11-29T23:18:28.545Z,31.07
2022-11-29T23:21:06.984Z,32.37
2022-11-29T23:23:34.509Z,31.03
2022-11-29T23:26:02.305Z,32.07
2022-11-29T23:28:29.887Z,30.63
2022-11-29T23:30:58.156Z,31.53
2022-11-29T23:33:25.019Z,29.23
2022-11-29T23:35:58.931Z,29.67
2022-11-29T23:38:25.736Z,31.03
2022-11-29T23:40:52.552Z,31.57
2022-11-29T23:43:19.375Z,31.73
2022-11-29T23:45:46.260Z,32.00
2022-11-29T23:48:14.733Z,32.03
2022-11-29T23:50:43.249Z,31.43
2022-11-29T23:53:13.974Z,30.37
2022-11-29T23:55:40.876Z,30.23
2022-11-29T23:58:08.005Z,32.27
